Time;durP1;ratioP1;P1;durP2;ratioP2;P2;SDS_P1;SDS_P2;PMS_P1;PMS_P2;Temp;Humidity;BMP_temperature;BMP_pressure;BME280_temperature;BME280_humidity;BME280_pressure;Samples;Min_cycle;Max_cycle;Signal;HPM_P1;HPM_P2
2022/07/27 00:00:47;;;;;;;2.85;0.40;;;;;;;19.21;71.18;101676.78;7388081;19;20025;-66
2022/07/27 00:03:14;;;;;;;5.53;0.55;;;;;;;19.19;70.83;101670.81;7389827;19;20035;-66
2022/07/27 00:05:41;;;;;;;4.47;0.40;;;;;;;19.21;70.89;101675.94;7385892;19;20020;-66
2022/07/27 00:08:08;;;;;;;3.78;0.40;;;;;;;19.20;70.70;101669.78;7388436;19;20028;-66
2022/07/27 00:10:36;;;;;;;5.70;0.50;;;;;;;19.22;70.72;101677.59;7388299;19;20035;-65
2022/07/27 00:13:04;;;;;;;3.83;0.43;;;;;;;19.21;70.64;101673.28;7387953;19;20015;-66
2022/07/27 00:15:33;;;;;;;2.70;0.60;;;;;;;19.19;70.75;101672.66;7389528;19;20042;-63
2022/07/27 00:18:00;;;;;;;4.47;0.30;;;;;;;19.16;70.69;101670.34;7389312;19;20010;-63
2022/07/27 00:20:28;;;;;;;4.35;0.40;;;;;;;19.15;70.52;101666.84;7383092;19;20462;-61
2022/07/27 00:22:55;;;;;;;3.15;0.47;;;;;;;19.12;70.42;101669.91;7388201;19;20420;-61
2022/07/27 00:25:23;;;;;;;5.28;0.40;;;;;;;19.10;70.56;101671.91;7389395;19;20082;-63
2022/07/27 00:27:50;;;;;;;4.47;0.50;;;;;;;19.08;70.87;101665.13;7389795;19;20355;-63
2022/07/27 00:30:17;;;;;;;6.47;0.77;;;;;;;19.04;70.84;101655.84;7388763;19;20090;-66
2022/07/27 00:32:44;;;;;;;6.07;0.52;;;;;;;19.03;70.37;101654.19;7389378;19;20007;-64
2022/07/27 00:35:12;;;;;;;5.75;0.30;;;;;;;19.02;69.99;101650.69;7386545;19;20139;-62
2022/07/27 00:37:39;;;;;;;2.65;0.30;;;;;;;19.01;69.82;101642.88;7387952;19;20448;-64
2022/07/27 00:40:07;;;;;;;7.75;0.40;;;;;;;19.00;69.78;101651.88;7386606;19;20587;-62
2022/07/27 00:42:35;;;;;;;2.42;0.40;;;;;;;18.99;69.62;101643.09;7390738;19;20010;-62
2022/07/27 00:45:04;;;;;;;6.80;1.83;;;;;;;18.98;70.72;101645.94;7389668;19;20014;-62
2022/07/27 00:47:31;;;;;;;5.72;0.40;;;;;;;18.96;70.35;101645.28;7389952;19;20020;-66
2022/07/27 00:49:58;;;;;;;4.30;0.40;;;;;;;18.93;70.07;101651.81;7386769;19;20017;-65
2022/07/27 00:52:27;;;;;;;8.38;0.63;;;;;;;18.91;70.21;101647.69;7387942;19;20388;-64
2022/07/27 00:54:54;;;;;;;5.95;0.40;;;;;;;18.88;70.30;101648.91;7389688;19;20013;-65
2022/07/27 00:57:22;;;;;;;4.97;0.40;;;;;;;18.85;70.27;101643.91;7389975;19;20086;-65
2022/07/27 00:59:49;;;;;;;3.92;0.30;;;;;;;18.82;70.81;101643.47;7386594;19;20459;-65
2022/07/27 01:02:16;;;;;;;3.83;0.93;;;;;;;18.82;71.12;101644.31;7386489;19;20018;-66
2022/07/27 01:04:48;;;;;;;5.80;0.40;;;;;;;18.85;70.86;101645.75;7386620;19;20018;-66
2022/07/27 01:07:20;;;;;;;4.55;0.40;;;;;;;18.90;70.69;101654.84;7387170;19;20014;-66
2022/07/27 01:09:55;;;;;;;2.30;0.60;;;;;;;18.91;70.48;101642.34;7388705;19;20010;-65
2022/07/27 01:12:25;;;;;;;4.65;0.30;;;;;;;18.90;70.42;101652.19;7389242;19;20010;-66
2022/07/27 01:14:53;;;;;;;8.07;1.25;;;;;;;18.86;70.35;101642.91;7389138;19;20103;-62
2022/07/27 01:17:20;;;;;;;6.78;0.60;;;;;;;18.86;70.23;101642.91;7388578;19;20086;-62
2022/07/27 01:19:47;;;;;;;4.65;0.40;;;;;;;18.89;71.41;101641.72;7385980;19;20011;-62
2022/07/27 01:22:14;;;;;;;5.45;0.40;;;;;;;18.86;70.29;101642.91;7387860;19;20024;-62
2022/07/27 01:24:41;;;;;;;3.28;0.30;;;;;;;18.88;70.16;101640.06;7388478;19;20074;-63
2022/07/27 01:27:08;;;;;;;3.83;0.40;;;;;;;18.88;70.19;101643.56;7388010;19;20057;-62
2022/07/27 01:29:36;;;;;;;3.60;0.50;;;;;;;18.89;70.05;101639.88;7387599;19;20470;-61
2022/07/27 01:32:03;;;;;;;5.40;0.70;;;;;;;18.89;69.72;101636.38;7388735;19;20032;-63
2022/07/27 01:34:33;;;;;;;4.05;0.60;;;;;;;18.89;70.08;101645.22;7384521;19;20015;-63
2022/07/27 01:37:01;;;;;;;3.25;0.45;;;;;;;18.87;70.22;101633.06;7385715;19;20015;-62
2022/07/27 01:39:29;;;;;;;6.93;0.40;;;;;;;18.84;70.12;101638.78;7378968;19;20027;-63
2022/07/27 01:41:56;;;;;;;1.30;0.30;;;;;;;18.82;70.39;101633.63;7388453;19;20010;-64
2022/07/27 01:44:23;;;;;;;4.35;0.43;;;;;;;18.82;70.67;101632.81;7385847;19;20021;-62
2022/07/27 01:46:50;;;;;;;3.08;0.30;;;;;;;18.82;70.90;101628.28;7388044;19;20021;-62
2022/07/27 01:49:17;;;;;;;5.75;0.40;;;;;;;18.83;71.13;101629.97;7385164;19;20339;-62
2022/07/27 01:51:44;;;;;;;5.15;0.43;;;;;;;18.83;70.94;101642.47;7385226;19;20010;-62
2022/07/27 01:54:11;;;;;;;5.60;0.38;;;;;;;18.85;71.70;101637.75;7386585;19;20034;-63
2022/07/27 01:56:38;;;;;;;4.65;0.50;;;;;;;18.88;71.31;101634.72;7387549;19;20018;-61
2022/07/27 01:59:05;;;;;;;4.72;0.40;;;;;;;18.87;71.13;101625.06;7388049;19;20014;-63
2022/07/27 02:01:32;;;;;;;2.45;0.30;;;;;;;18.86;71.29;101626.06;7385388;19;20042;-66
2022/07/27 02:03:59;;;;;;;2.97;0.40;;;;;;;18.87;70.90;101625.06;7381509;19;20598;-65
2022/07/27 02:06:26;;;;;;;4.45;0.50;;;;;;;18.88;70.58;101624.88;7385167;19;20070;-65
2022/07/27 02:08:52;;;;;;;6.00;0.40;;;;;;;18.90;70.45;101622.84;7385602;19;20506;-64
2022/07/27 02:14:05;;;;;;;3.15;0.30;;;;;;;18.86;70.13;101618.91;7384718;19;20850;-65
2022/07/27 02:16:31;;;;;;;2.55;0.40;;;;;;;18.85;70.69;101619.09;7386051;19;20538;-66
2022/07/27 02:18:59;;;;;;;7.43;0.50;;;;;;;18.82;70.53;101622.97;7384120;19;20322;-66
2022/07/27 02:21:30;;;;;;;2.15;0.40;;;;;;;18.79;70.50;101618.00;7384561;19;20019;-62
2022/07/27 02:23:57;;;;;;;3.55;0.30;;;;;;;18.76;70.63;101613.88;7385409;19;20018;-62
2022/07/27 02:26:24;;;;;;;8.63;0.70;;;;;;;18.76;70.69;101610.38;7385758;19;20110;-65
2022/07/27 02:28:50;;;;;;;8.32;0.40;;;;;;;18.78;71.19;101617.19;7385574;19;20011;-66
2022/07/27 02:31:17;;;;;;;3.08;0.32;;;;;;;18.82;70.26;101614.97;7385859;19;20027;-66
2022/07/27 02:33:44;;;;;;;2.55;0.20;;;;;;;18.84;69.87;101612.94;7382622;19;20014;-65
2022/07/27 02:36:11;;;;;;;2.10;0.30;;;;;;;18.84;69.38;101618.28;7383854;19;20078;-62
2022/07/27 02:38:38;;;;;;;5.15;0.40;;;;;;;18.84;69.36;101607.63;7381635;19;20015;-62
2022/07/27 02:41:05;;;;;;;4.47;0.40;;;;;;;18.82;69.05;101612.28;7383182;19;20078;-65
2022/07/27 02:43:32;;;;;;;2.80;0.68;;;;;;;18.78;69.44;101608.34;7383483;19;20015;-65
2022/07/27 02:45:59;;;;;;;4.53;0.35;;;;;;;18.77;69.13;101609.38;7385338;19;20098;-62
2022/07/27 02:48:26;;;;;;;2.58;0.30;;;;;;;18.76;68.57;101605.03;7383647;19;20010;-62
2022/07/27 02:50:53;;;;;;;3.22;0.28;;;;;;;18.75;68.84;101606.88;7383792;19;20410;-62
2022/07/27 02:53:20;;;;;;;5.10;0.45;;;;;;;18.72;68.96;101603.75;7381389;19;20401;-61
2022/07/27 02:55:46;;;;;;;3.95;0.40;;;;;;;18.74;69.07;101593.75;7384607;19;20014;-61
2022/07/27 02:58:13;;;;;;;4.70;0.40;;;;;;;18.75;68.85;101595.38;7382396;19;20492;-62
2022/07/27 03:00:40;;;;;;;2.78;0.30;;;;;;;18.76;68.67;101602.38;7380130;19;20023;-62
2022/07/27 03:03:07;;;;;;;3.38;0.30;;;;;;;18.76;68.69;101599.72;7382536;19;20642;-61
2022/07/27 03:05:34;;;;;;;1.10;0.30;;;;;;;18.77;68.69;101601.38;7378585;19;20090;-63
2022/07/27 03:08:01;;;;;;;3.53;0.30;;;;;;;18.76;68.35;101605.88;7381154;19;20423;-62
2022/07/27 03:10:28;;;;;;;6.25;0.40;;;;;;;18.74;68.57;101589.22;7379773;19;20021;-63
2022/07/27 03:12:55;;;;;;;4.05;0.30;;;;;;;18.77;68.60;101596.03;7382060;19;20034;-63
2022/07/27 03:15:23;;;;;;;4.53;0.30;;;;;;;18.76;68.49;101595.19;7381397;19;20025;-63
2022/07/27 03:17:51;;;;;;;3.25;0.50;;;;;;;18.76;68.84;101594.38;7383370;19;20014;-63
2022/07/27 03:20:18;;;;;;;4.78;0.40;;;;;;;18.77;68.94;101599.53;7377245;19;20014;-62
2022/07/27 03:22:45;;;;;;;2.58;0.20;;;;;;;18.78;68.44;101595.03;7382194;19;20486;-63
2022/07/27 03:25:12;;;;;;;5.15;0.30;;;;;;;18.82;67.93;101592.78;7378066;19;20018;-63
2022/07/27 03:27:39;;;;;;;5.22;0.30;;;;;;;18.82;68.16;101593.63;7382828;19;20010;-66
2022/07/27 03:30:06;;;;;;;5.97;0.30;;;;;;;18.81;68.16;101594.63;7381560;19;20086;-62
2022/07/27 03:32:33;;;;;;;2.78;0.30;;;;;;;18.82;68.03;101588.28;7381849;19;20014;-67
2022/07/27 03:35:00;;;;;;;5.47;0.43;;;;;;;18.84;67.81;101585.44;7379726;19;20020;-65
2022/07/27 03:37:27;;;;;;;3.65;0.30;;;;;;;18.84;68.28;101588.94;7380743;19;20446;-65
2022/07/27 03:39:54;;;;;;;2.65;0.38;;;;;;;18.86;67.85;101586.06;7232126;19;2925310;-67
2022/07/27 03:42:21;;;;;;;5.03;0.30;;;;;;;18.86;67.85;101592.22;7382568;19;20015;-65
2022/07/27 03:44:48;;;;;;;4.18;0.20;;;;;;;18.85;67.65;101589.75;7383436;19;20022;-65
2022/07/27 03:47:14;;;;;;;3.33;0.25;;;;;;;18.82;67.78;101593.63;7383625;19;20018;-65
2022/07/27 03:49:41;;;;;;;4.38;0.30;;;;;;;18.83;68.04;101591.78;7381137;19;20015;-65
2022/07/27 03:52:09;;;;;;;5.63;0.32;;;;;;;18.84;67.92;101590.78;7383393;19;20059;-66
2022/07/27 03:54:43;;;;;;;2.78;0.20;;;;;;;18.84;68.54;101585.44;7382666;19;20014;-65
2022/07/27 03:57:09;;;;;;;4.57;0.30;;;;;;;18.82;68.07;101582.13;7384002;19;20548;-65
2022/07/27 03:59:36;;;;;;;4.85;0.20;;;;;;;18.82;67.86;101580.28;7383212;19;20077;-65
2022/07/27 04:02:05;;;;;;;2.15;0.60;;;;;;;18.82;67.65;101590.97;7380027;19;20013;-66
2022/07/27 04:04:32;;;;;;;3.05;0.20;;;;;;;18.81;67.22;101591.97;7378112;19;20027;-66
2022/07/27 04:06:59;;;;;;;4.45;0.50;;;;;;;18.80;66.58;101595.63;7381759;19;20317;-68
2022/07/27 04:09:27;;;;;;;1.10;0.20;;;;;;;18.77;65.72;101591.53;7382637;19;20011;-66
2022/07/27 04:11:56;;;;;;;4.15;0.30;;;;;;;18.78;65.47;101593.19;7383920;19;20018;-65
2022/07/27 04:14:25;;;;;;;3.97;0.30;;;;;;;18.79;65.57;101592.16;7382154;19;20019;-62
2022/07/27 04:16:52;;;;;;;2.97;0.35;;;;;;;18.78;65.21;101597.69;7383733;19;20019;-63
2022/07/27 04:19:20;;;;;;;2.05;0.20;;;;;;;18.77;65.13;101596.84;7377488;19;20015;-62
2022/07/27 04:21:47;;;;;;;0.85;0.10;;;;;;;18.78;65.12;101592.34;7381374;19;20035;-61
2022/07/27 04:24:15;;;;;;;4.07;0.50;;;;;;;18.79;66.91;101594.81;7381411;19;20011;-62
2022/07/27 04:26:42;;;;;;;7.63;0.50;;;;;;;18.77;67.82;101594.19;7384277;19;20014;-61
2022/07/27 04:29:10;;;;;;;4.78;0.63;;;;;;;18.76;69.87;101589.88;7382615;19;20029;-61
2022/07/27 04:31:37;;;;;;;6.78;0.47;;;;;;;18.73;69.34;101592.09;7382023;19;20025;-64
2022/07/27 04:34:06;;;;;;;3.40;0.40;;;;;;;18.72;69.28;101590.44;7376853;19;20011;-66
2022/07/27 04:36:37;;;;;;;3.67;0.50;;;;;;;18.68;69.08;101594.50;7382047;19;20017;-65
2022/07/27 04:39:05;;;;;;;3.03;0.40;;;;;;;18.64;68.93;101593.22;7387676;19;20470;-65
2022/07/27 04:41:32;;;;;;;3.85;0.40;;;;;;;18.63;69.04;101595.06;7385541;19;20014;-66
2022/07/27 04:43:59;;;;;;;4.00;0.40;;;;;;;18.60;68.94;101590.06;7389584;19;20010;-66
2022/07/27 04:46:31;;;;;;;3.25;1.00;;;;;;;18.62;69.99;101597.91;7388346;19;20373;-66
2022/07/27 04:48:58;;;;;;;3.42;0.50;;;;;;;18.64;69.83;101604.69;7387923;19;20112;-66
2022/07/27 04:51:25;;;;;;;5.05;0.60;;;;;;;18.66;69.08;101608.00;7387347;19;20026;-66
2022/07/27 04:53:58;;;;;;;3.15;0.28;;;;;;;18.67;68.20;101601.66;7389330;19;20384;-66
2022/07/27 04:56:26;;;;;;;4.43;0.50;;;;;;;18.67;67.89;101600.84;7386917;19;20455;-66
2022/07/27 04:58:54;;;;;;;3.90;0.30;;;;;;;18.67;67.72;101608.84;7387818;19;20078;-66
2022/07/27 05:01:22;;;;;;;3.85;0.30;;;;;;;18.67;67.31;101607.00;7385750;19;20006;-67
2022/07/27 05:03:49;;;;;;;3.10;0.47;;;;;;;18.67;67.46;101609.66;7386518;19;20228;-66
2022/07/27 05:06:16;;;;;;;2.00;0.20;;;;;;;18.69;67.56;101606.81;7387447;19;20033;-66
2022/07/27 05:08:43;;;;;;;5.82;0.40;;;;;;;18.72;67.54;101607.25;7385601;19;20517;-65
2022/07/27 05:11:11;;;;;;;1.75;0.20;;;;;;;18.73;67.23;101605.44;7387267;19;20386;-65
2022/07/27 05:13:41;;;;;;;3.10;0.30;;;;;;;18.74;67.51;101615.88;7386800;19;20417;-65
2022/07/27 05:16:13;;;;;;;4.40;0.55;;;;;;;18.72;67.79;101611.75;7387923;19;20006;-65
2022/07/27 05:18:56;;;;;;;4.20;0.52;;;;;;;18.70;68.42;101608.44;7384908;19;20156;-65
2022/07/27 05:21:24;;;;;;;3.20;0.60;;;;;;;18.67;68.92;101614.16;7384199;19;20148;-61
2022/07/27 05:23:50;;;;;;;6.32;0.82;;;;;;;18.63;69.61;101619.06;7385636;19;20082;-62
2022/07/27 05:26:18;;;;;;;2.80;0.60;;;;;;;18.59;70.09;101615.06;7388514;19;20106;-62
2022/07/27 05:28:44;;;;;;;7.35;0.70;;;;;;;18.56;69.63;101618.13;7388429;19;20153;-62
2022/07/27 05:31:11;;;;;;;2.80;0.68;;;;;;;18.55;70.00;101627.13;7388432;19;20011;-62
2022/07/27 05:33:38;;;;;;;3.60;0.60;;;;;;;18.57;70.37;101626.94;7385574;19;20018;-62
2022/07/27 05:36:12;;;;;;;5.43;0.90;;;;;;;18.56;70.16;101623.47;7387958;19;20374;-61
2022/07/27 05:38:39;;;;;;;5.25;0.70;;;;;;;18.57;70.46;101634.94;7385332;19;20022;-61
2022/07/27 05:41:06;;;;;;;6.50;1.00;;;;;;;18.60;70.35;101634.56;7388198;19;20014;-62
2022/07/27 05:43:34;;;;;;;5.85;1.00;;;;;;;18.58;70.27;101629.44;7387172;19;20518;-65
2022/07/27 05:46:01;;;;;;;4.18;0.70;;;;;;;18.57;70.33;101633.13;7387145;19;20029;-65
2022/07/27 05:48:28;;;;;;;4.57;0.70;;;;;;;18.57;70.81;101632.28;7383631;19;20022;-66
2022/07/27 05:50:55;;;;;;;2.97;0.40;;;;;;;18.58;70.91;101636.63;7387874;19;20038;-64
2022/07/27 05:53:22;;;;;;;3.08;0.47;;;;;;;18.58;70.80;101636.63;7384272;19;20127;-64
2022/07/27 05:55:51;;;;;;;1.80;0.40;;;;;;;18.61;70.69;101630.91;7385239;19;20014;-70
2022/07/27 05:58:26;;;;;;;4.80;0.40;;;;;;;18.66;71.26;101641.84;7385261;19;20021;-65
2022/07/27 06:00:55;;;;;;;3.25;0.43;;;;;;;18.69;70.62;101639.63;7386427;19;20625;-64
2022/07/27 06:03:22;;;;;;;4.50;0.45;;;;;;;18.71;69.62;101639.44;7385654;19;20031;-65
2022/07/27 06:05:50;;;;;;;5.00;0.40;;;;;;;18.76;69.23;101643.19;7384147;19;20032;-65
2022/07/27 06:08:17;;;;;;;5.93;0.40;;;;;;;18.79;69.32;101632.16;7385175;19;20031;-65
2022/07/27 06:10:44;;;;;;;4.10;0.35;;;;;;;18.83;68.72;101640.63;7386038;19;20597;-65
2022/07/27 06:13:12;;;;;;;3.08;0.45;;;;;;;18.89;69.33;101641.72;7386494;19;20588;-65
2022/07/27 06:15:39;;;;;;;3.30;0.30;;;;;;;18.95;69.40;101644.44;7385242;19;20070;-61
2022/07/27 06:18:17;;;;;;;3.00;0.50;;;;;;;19.01;68.48;101638.38;7385739;19;20037;-62
2022/07/27 06:20:45;;;;;;;4.00;0.40;;;;;;;19.07;67.70;101644.78;7382577;19;20022;-62
2022/07/27 06:23:12;;;;;;;5.72;1.02;;;;;;;19.09;67.93;101638.28;7383793;19;20007;-63
2022/07/27 06:25:39;;;;;;;4.72;0.40;;;;;;;19.11;67.82;101635.38;7383612;19;20011;-62
2022/07/27 06:28:15;;;;;;;4.25;0.25;;;;;;;19.12;67.40;101640.53;7386040;19;20475;-62
2022/07/27 06:30:42;;;;;;;4.13;0.50;;;;;;;19.13;67.88;101644.88;7385158;19;20542;-65
2022/07/27 06:33:09;;;;;;;2.85;0.20;;;;;;;19.13;67.20;101647.53;7384962;19;20021;-66
2022/07/27 06:35:36;;;;;;;3.15;0.32;;;;;;;19.15;67.21;101642.00;7380204;19;20010;-63
2022/07/27 06:38:14;;;;;;;2.28;0.50;;;;;;;19.18;67.36;101641.63;7384985;19;20025;-63
2022/07/27 06:40:44;;;;;;;1.20;0.20;;;;;;;19.19;67.58;101648.63;7385967;19;20514;-63
2022/07/27 06:43:11;;;;;;;3.15;0.28;;;;;;;19.22;68.05;101648.25;7384942;19;20463;-63
2022/07/27 06:45:39;;;;;;;6.28;1.08;;;;;;;19.25;68.15;101647.06;7385703;19;20050;-63
2022/07/27 06:48:16;;;;;;;4.43;0.50;;;;;;;19.27;67.70;101645.84;7385946;19;20024;-67
2022/07/27 06:50:45;;;;;;;4.13;0.40;;;;;;;19.31;67.20;101651.59;7381136;19;20022;-66
2022/07/27 06:53:12;;;;;;;2.33;0.32;;;;;;;19.35;67.00;101661.72;7383117;19;20011;-66
2022/07/27 06:55:46;;;;;;;0.80;0.30;;;;;;;19.40;66.21;101663.84;7386291;19;20387;-63
2022/07/27 06:58:18;;;;;;;3.95;0.30;;;;;;;19.39;66.47;101665.69;7384929;19;20119;-63
2022/07/27 07:00:47;;;;;;;3.92;0.38;;;;;;;19.40;66.89;101669.19;7383026;19;20479;-62
2022/07/27 07:03:14;;;;;;;4.60;0.57;;;;;;;19.42;66.61;101664.47;7383585;19;20022;-63
2022/07/27 07:05:45;;;;;;;2.90;0.30;;;;;;;19.43;66.83;101661.63;7379981;19;20006;-63
2022/07/27 07:08:17;;;;;;;3.25;0.38;;;;;;;19.43;67.36;101663.44;7383655;19;20015;-63
2022/07/27 07:10:46;;;;;;;4.40;0.40;;;;;;;19.45;67.17;101658.78;7384448;19;20011;-64
2022/07/27 07:13:13;;;;;;;2.42;0.40;;;;;;;19.47;66.65;101673.59;7381904;19;20006;-63
2022/07/27 07:15:42;;;;;;;4.47;0.40;;;;;;;19.51;66.76;101671.34;7383128;19;20010;-62
2022/07/27 07:18:17;;;;;;;1.35;0.30;;;;;;;19.51;66.88;101668.69;7384324;19;20010;-62
2022/07/27 07:20:45;;;;;;;5.53;0.70;;;;;;;19.49;67.32;101668.91;7379989;19;20014;-62
2022/07/27 07:23:12;;;;;;;3.50;0.30;;;;;;;19.54;66.50;101669.16;7382241;19;20014;-62
2022/07/27 07:25:39;;;;;;;5.43;0.30;;;;;;;19.58;66.32;101672.25;7382788;19;20388;-62
2022/07/27 07:28:20;;;;;;;3.47;0.22;;;;;;;19.60;66.03;101668.41;7384527;19;20022;-63
2022/07/27 07:30:51;;;;;;;3.15;0.20;;;;;;;19.64;66.04;101675.00;7383805;19;20444;-63
2022/07/27 07:33:18;;;;;;;4.03;0.30;;;;;;;19.64;66.13;101674.19;7382224;19;20017;-63
2022/07/27 07:35:45;;;;;;;2.33;0.40;;;;;;;19.65;66.28;101673.16;7378503;19;20349;-63
2022/07/27 07:38:33;;;;;;;3.38;0.30;;;;;;;19.66;65.79;101671.31;7382029;19;20022;-62
2022/07/27 07:41:00;;;;;;;2.38;0.35;;;;;;;19.68;65.85;101671.94;7382616;19;20512;-62
2022/07/27 07:43:27;;;;;;;3.05;0.60;;;;;;;19.74;65.88;101672.00;7380907;19;20491;-67
2022/07/27 07:45:56;;;;;;;3.88;0.30;;;;;;;19.78;66.34;101673.28;7383524;19;20047;-66
2022/07/27 07:48:26;;;;;;;2.55;0.30;;;;;;;19.84;66.15;101672.50;7383066;19;20019;-65
2022/07/27 07:50:55;;;;;;;6.68;0.40;;;;;;;19.92;66.04;101674.19;7381387;19;20014;-65
2022/07/27 07:53:23;;;;;;;2.47;0.50;;;;;;;19.97;66.29;101672.59;7380325;19;20261;-65
2022/07/27 07:55:52;;;;;;;4.03;0.40;;;;;;;20.01;66.00;101686.41;7382249;19;20118;-66
2022/07/27 07:58:21;;;;;;;5.47;1.00;;;;;;;20.04;66.24;101689.53;7380188;19;20018;-66
2022/07/27 08:00:49;;;;;;;1.77;0.32;;;;;;;20.04;65.95;101686.84;7381426;19;20523;-66
2022/07/27 08:03:17;;;;;;;6.05;0.40;;;;;;;20.06;65.25;101686.66;7379701;19;20515;-65
2022/07/27 08:05:44;;;;;;;2.80;0.40;;;;;;;20.07;65.28;101685.63;7379376;19;20018;-65
2022/07/27 08:08:17;;;;;;;8.30;0.50;;;;;;;20.07;66.18;101694.47;7382904;19;20106;-63
2022/07/27 08:10:50;;;;;;;5.00;0.30;;;;;;;20.07;65.53;101690.97;7381896;19;20026;-63
2022/07/27 08:13:18;;;;;;;2.88;0.30;;;;;;;20.08;65.83;101689.94;7390561;19;20617;-63
2022/07/27 08:15:49;;;;;;;5.15;0.47;;;;;;;20.07;66.53;101690.97;7390272;19;20078;-63
2022/07/27 08:18:18;;;;;;;2.72;0.43;;;;;;;20.07;65.96;101691.78;7389089;19;20014;-61
2022/07/27 08:20:48;;;;;;;4.43;0.60;;;;;;;20.07;65.43;101701.66;7383581;19;20014;-61
2022/07/27 08:23:15;;;;;;;2.85;0.43;;;;;;;20.05;66.62;101690.34;7386112;19;20029;-62
2022/07/27 08:25:42;;;;;;;3.55;0.30;;;;;;;20.07;66.21;101689.13;7389017;19;20389;-63
2022/07/27 08:28:18;;;;;;;4.03;0.20;;;;;;;20.12;66.08;101682.38;7387299;19;20065;-66
2022/07/27 08:30:49;;;;;;;3.80;0.22;;;;;;;20.14;65.35;101680.34;7387173;19;20074;-66
2022/07/27 08:33:16;;;;;;;4.55;0.50;;;;;;;20.20;65.77;101687.59;7387339;19;20462;-67
2022/07/27 08:35:44;;;;;;;8.30;2.20;;;;;;;20.20;65.89;101690.25;7383807;19;20037;-65
2022/07/27 08:38:19;;;;;;;8.10;0.90;;;;;;;20.24;65.35;101687.00;7387073;19;20029;-65
2022/07/27 08:40:49;;;;;;;5.38;0.55;;;;;;;20.31;66.49;101684.41;7388115;19;20014;-66
2022/07/27 08:43:18;;;;;;;5.55;0.63;;;;;;;20.37;64.85;101689.78;7385566;19;20420;-66
2022/07/27 08:46:00;;;;;;;3.20;0.30;;;;;;;20.46;64.82;101685.13;7387431;19;20090;-66
2022/07/27 08:48:29;;;;;;;4.60;0.22;;;;;;;20.53;64.48;101688.66;7385472;19;20101;-61
2022/07/27 08:50:57;;;;;;;2.13;0.30;;;;;;;20.61;64.94;101675.13;7389113;19;20022;-65
2022/07/27 08:53:25;;;;;;;5.78;0.35;;;;;;;20.66;63.47;101675.38;7386551;19;20078;-65
2022/07/27 08:56:12;;;;;;;5.80;0.40;;;;;;;20.74;63.24;101677.88;7389010;19;20573;-66
2022/07/27 08:58:39;;;;;;;4.00;1.20;;;;;;;20.77;63.33;101673.97;7388755;19;20014;-66
2022/07/27 09:01:06;;;;;;;3.47;0.30;;;;;;;20.80;62.89;101679.75;7388048;19;20372;-66
2022/07/27 09:03:33;;;;;;;3.00;0.17;;;;;;;20.84;61.32;101683.66;7384683;19;20010;-66
2022/07/27 09:06:00;;;;;;;3.33;0.38;;;;;;;20.88;60.19;101684.09;7387997;19;20015;-66
2022/07/27 09:08:28;;;;;;;2.55;0.20;;;;;;;20.92;59.07;101674.66;7386443;19;20014;-67
2022/07/27 09:10:58;;;;;;;1.67;0.20;;;;;;;20.95;58.53;101676.09;7390334;19;20014;-66
2022/07/27 09:13:33;;;;;;;4.07;0.30;;;;;;;21.00;59.47;101669.13;7388665;19;20139;-66
2022/07/27 09:16:06;;;;;;;5.85;0.80;;;;;;;21.04;59.46;101678.41;7389375;19;20523;-66
2022/07/27 09:19:09;;;;;;;3.47;0.30;;;;;;;21.10;59.04;101676.78;7385918;19;20059;-65
2022/07/27 09:21:37;;;;;;;3.30;0.30;;;;;;;21.21;58.30;101670.88;7383644;19;20025;-67
2022/07/27 09:24:12;;;;;;;4.20;0.20;;;;;;;21.21;58.58;101679.72;7386334;19;20035;-65
2022/07/27 09:27:04;;;;;;;3.80;0.40;;;;;;;21.19;58.63;101684.44;7389098;19;20034;-65
2022/07/27 09:29:35;;;;;;;3.13;0.68;;;;;;;21.12;59.33;101675.56;7385211;19;20597;-66
2022/07/27 09:32:14;;;;;;;2.55;0.60;;;;;;;21.06;59.98;101673.69;7388653;19;20020;-65
2022/07/27 09:34:42;;;;;;;2.67;0.50;;;;;;;21.02;60.78;101668.94;7384235;19;20002;-63
2022/07/27 09:37:10;;;;;;;1.38;0.25;;;;;;;21.00;60.52;101670.97;7386921;19;20014;-62
2022/07/27 09:39:38;;;;;;;2.40;0.28;;;;;;;20.95;59.50;101668.91;7386539;19;20081;-62
2022/07/27 09:42:05;;;;;;;4.22;0.22;;;;;;;20.91;59.82;101675.69;7387038;19;20022;-62
2022/07/27 09:44:41;;;;;;;3.67;0.20;;;;;;;20.85;60.26;101674.63;7388510;19;20089;-62
2022/07/27 09:47:25;;;;;;;4.05;0.30;;;;;;;20.83;61.43;101670.47;7387632;19;20090;-62
2022/07/27 09:50:16;;;;;;;3.42;0.30;;;;;;;20.80;60.85;101669.03;7385561;19;20017;-62
2022/07/27 09:52:44;;;;;;;2.08;0.20;;;;;;;20.80;59.56;101676.25;7386743;19;20018;-65
2022/07/27 09:55:11;;;;;;;2.85;0.20;;;;;;;20.80;59.70;101676.25;7386933;19;20015;-66
2022/07/27 09:57:57;;;;;;;1.92;0.17;;;;;;;20.81;59.40;101667.19;7384875;19;20015;-66
2022/07/27 10:00:26;;;;;;;1.95;0.28;;;;;;;20.83;59.36;101665.13;7387126;19;20038;-66
2022/07/27 10:02:54;;;;;;;3.38;0.20;;;;;;;20.81;59.08;101662.69;7386699;19;20015;-67
2022/07/27 10:05:22;;;;;;;1.67;0.30;;;;;;;20.84;59.28;101664.94;7383409;19;20023;-67
2022/07/27 10:07:52;;;;;;;1.85;0.30;;;;;;;20.83;59.24;101659.78;7384088;19;20042;-66
2022/07/27 10:10:21;;;;;;;3.30;0.30;;;;;;;20.84;58.47;101659.59;7386864;19;20010;-66
2022/07/27 10:12:48;;;;;;;2.63;0.20;;;;;;;20.85;58.48;101671.13;7386797;19;20021;-65
2022/07/27 10:15:24;;;;;;;1.65;0.30;;;;;;;20.86;58.19;101660.22;7386670;19;20014;-63
2022/07/27 10:18:02;;;;;;;1.70;0.30;;;;;;;20.91;58.47;101660.47;7386777;19;20022;-61
2022/07/27 10:20:37;;;;;;;2.88;0.20;;;;;;;20.95;58.33;101652.00;7383511;19;20376;-63
2022/07/27 10:23:04;;;;;;;2.58;0.30;;;;;;;20.96;57.82;101651.81;7384450;19;20491;-62
2022/07/27 10:25:33;;;;;;;3.10;0.40;;;;;;;20.98;58.04;101654.31;7387130;19;20014;-62
2022/07/27 10:28:20;;;;;;;2.78;0.40;;;;;;;21.01;57.94;101648.53;7386986;19;20023;-61
2022/07/27 10:30:48;;;;;;;1.27;0.30;;;;;;;21.03;58.18;101652.66;7383831;19;20021;-63
2022/07/27 10:33:53;;;;;;;1.73;0.40;;;;;;;21.07;57.08;101653.09;7382352;19;20014;-62
2022/07/27 10:36:23;;;;;;;3.88;0.30;;;;;;;21.09;57.62;101653.69;7382032;19;20086;-61
2022/07/27 10:38:55;;;;;;;4.68;1.05;;;;;;;21.08;57.79;101642.16;7382048;19;20018;-62
2022/07/27 10:41:42;;;;;;;4.43;0.20;;;;;;;21.11;56.92;101647.13;7385575;19;20014;-62
2022/07/27 10:44:16;;;;;;;1.50;0.22;;;;;;;21.14;57.71;101640.56;7385665;19;20014;-62
2022/07/27 10:46:45;;;;;;;2.47;0.20;;;;;;;21.18;58.06;101644.50;7385236;19;20030;-65
2022/07/27 10:49:20;;;;;;;2.67;0.30;;;;;;;21.21;57.82;101646.78;7383588;19;20033;-66
2022/07/27 10:51:52;;;;;;;2.45;0.20;;;;;;;21.23;57.71;101637.50;7385899;19;20031;-65
2022/07/27 10:54:26;;;;;;;2.58;0.30;;;;;;;21.26;57.28;101639.78;7382380;19;20019;-65
2022/07/27 10:56:57;;;;;;;2.85;0.38;;;;;;;21.30;57.49;101642.88;7383544;19;20011;-66
2022/07/27 10:59:43;;;;;;;4.70;0.22;;;;;;;21.33;57.25;101634.47;7384651;19;20046;-65
2022/07/27 11:02:38;;;;;;;4.68;0.50;;;;;;;21.34;57.82;101641.44;7383889;19;20014;-66
2022/07/27 11:05:05;;;;;;;3.08;0.40;;;;;;;21.35;57.74;101635.06;7382778;19;20012;-62
2022/07/27 11:07:32;;;;;;;5.47;0.57;;;;;;;21.38;57.72;101639.19;7383509;19;20019;-63
2022/07/27 11:10:11;;;;;;;2.10;0.40;;;;;;;21.41;58.03;101636.94;7384775;19;20118;-62
2022/07/27 11:12:40;;;;;;;7.72;2.22;;;;;;;21.43;58.16;101636.72;7385815;19;20010;-63
2022/07/27 11:15:08;;;;;;;4.97;0.88;;;;;;;21.46;58.05;101629.09;7383076;19;20035;-63
2022/07/27 11:17:35;;;;;;;3.35;0.50;;;;;;;21.50;57.08;101624.97;7384402;19;20014;-63
2022/07/27 11:20:25;;;;;;;2.25;0.40;;;;;;;21.55;56.62;101627.88;7380153;19;20032;-62
2022/07/27 11:22:58;;;;;;;3.85;0.40;;;;;;;21.57;56.26;101625.00;7382129;19;20439;-62
2022/07/27 11:26:01;;;;;;;2.03;0.30;;;;;;;21.56;55.48;101632.19;7384346;19;20098;-67
2022/07/27 11:28:30;;;;;;;;;;;;;;;21.57;55.22;101627.69;7381989;19;20026;-61
2022/07/27 11:30:58;;;;;;;2.80;0.20;;;;;;;21.54;56.65;101620.84;7383524;19;19945;-66
2022/07/27 11:33:26;;;;;;;3.22;0.50;;;;;;;21.51;57.33;101629.31;7382940;19;20025;-67
2022/07/27 11:35:57;;;;;;;3.03;0.40;;;;;;;21.49;56.44;101620.66;7382084;19;20078;-66
2022/07/27 11:38:25;;;;;;;2.60;0.30;;;;;;;21.48;57.03;101627.06;7380950;19;20015;-66